Disclaimer

Please do not use the information listed here in-flight or in-navigation, as they are not provided to us by the airports but are provided by volunteers, so they might be outdated.

Search


Regions


Airport information page

Radio informations:
Tower (TWR) - 118.0 MHz

Airport informations:
Latitude: 24° 20' 40.29" N
Longitude: 124° 11' 13.14" E
Elevation: 93 feet - 28 meters
Operating hours: Remarks
Operating agency: Civil government, landing fees and diplomatic clearance may be required
Timezone: UTC+9
Fuel: Jet A, without icing inhibitor.

100/130 octane gasoline, leaded, MIL-L-5572F (GREEN)

Runway information:
04/22 - 4920 x 150 feet< - >1500 x 46 meters

Recent METARs:
ROIG 122100Z VRB01KT 9999 FEW015 BKN090 21/21 Q1013

Airport on the map: